sensor_id;sensor_type;location;lat;lon;timestamp;P1;durP1;ratioP1;P2;durP2;ratioP2
69323;SDS011;56470;47.350;8.718;2023-05-07T00:00:46;3.08;;;1.73;;
69323;SDS011;56470;47.350;8.718;2023-05-07T00:03:11;3.90;;;1.90;;
69323;SDS011;56470;47.350;8.718;2023-05-07T00:05:38;2.83;;;1.63;;
69323;SDS011;56470;47.350;8.718;2023-05-07T00:08:04;3.42;;;1.73;;
69323;SDS011;56470;47.350;8.718;2023-05-07T00:10:29;3.27;;;1.87;;
69323;SDS011;56470;47.350;8.718;2023-05-07T00:12:55;2.83;;;1.63;;
69323;SDS011;56470;47.350;8.718;2023-05-07T00:15:28;5.20;;;1.83;;
69323;SDS011;56470;47.350;8.718;2023-05-07T00:17:53;2.93;;;1.53;;
69323;SDS011;56470;47.350;8.718;2023-05-07T00:20:19;3.30;;;2.00;;
69323;SDS011;56470;47.350;8.718;2023-05-07T00:22:44;3.10;;;1.43;;
69323;SDS011;56470;47.350;8.718;2023-05-07T00:25:14;3.60;;;2.10;;
69323;SDS011;56470;47.350;8.718;2023-05-07T00:27:40;3.70;;;1.70;;
69323;SDS011;56470;47.350;8.718;2023-05-07T00:30:05;3.33;;;1.90;;
69323;SDS011;56470;47.350;8.718;2023-05-07T00:32:31;4.32;;;1.77;;
69323;SDS011;56470;47.350;8.718;2023-05-07T00:34:56;3.17;;;1.60;;
69323;SDS011;56470;47.350;8.718;2023-05-07T00:37:22;3.63;;;1.60;;
69323;SDS011;56470;47.350;8.718;2023-05-07T00:39:47;3.03;;;1.83;;
69323;SDS011;56470;47.350;8.718;2023-05-07T00:42:12;3.07;;;1.77;;
69323;SDS011;56470;47.350;8.718;2023-05-07T00:44:40;2.10;;;1.42;;
69323;SDS011;56470;47.350;8.718;2023-05-07T00:47:05;4.75;;;1.67;;
69323;SDS011;56470;47.350;8.718;2023-05-07T00:52:02;2.92;;;1.90;;
69323;SDS011;56470;47.350;8.718;2023-05-07T00:54:28;3.67;;;1.67;;
69323;SDS011;56470;47.350;8.718;2023-05-07T00:56:53;2.60;;;1.30;;
69323;SDS011;56470;47.350;8.718;2023-05-07T00:59:19;4.10;;;1.98;;
69323;SDS011;56470;47.350;8.718;2023-05-07T01:01:45;4.63;;;1.47;;
69323;SDS011;56470;47.350;8.718;2023-05-07T01:04:11;2.80;;;1.87;;
69323;SDS011;56470;47.350;8.718;2023-05-07T01:06:36;2.83;;;1.67;;
69323;SDS011;56470;47.350;8.718;2023-05-07T01:09:02;3.60;;;1.90;;
69323;SDS011;56470;47.350;8.718;2023-05-07T01:11:29;2.70;;;1.20;;
69323;SDS011;56470;47.350;8.718;2023-05-07T01:13:55;2.53;;;1.63;;
69323;SDS011;56470;47.350;8.718;2023-05-07T01:16:21;10.67;;;2.27;;
69323;SDS011;56470;47.350;8.718;2023-05-07T01:18:47;3.40;;;1.60;;
69323;SDS011;56470;47.350;8.718;2023-05-07T01:21:14;3.00;;;1.50;;
69323;SDS011;56470;47.350;8.718;2023-05-07T01:23:41;2.35;;;1.58;;
69323;SDS011;56470;47.350;8.718;2023-05-07T01:26:07;3.58;;;2.17;;
69323;SDS011;56470;47.350;8.718;2023-05-07T01:28:32;2.97;;;1.83;;
69323;SDS011;56470;47.350;8.718;2023-05-07T01:31:01;3.53;;;2.00;;
69323;SDS011;56470;47.350;8.718;2023-05-07T01:33:29;3.65;;;1.45;;
69323;SDS011;56470;47.350;8.718;2023-05-07T01:35:58;2.95;;;1.42;;
69323;SDS011;56470;47.350;8.718;2023-05-07T01:38:27;3.45;;;1.60;;
69323;SDS011;56470;47.350;8.718;2023-05-07T01:40:53;3.70;;;1.47;;
69323;SDS011;56470;47.350;8.718;2023-05-07T01:43:18;5.75;;;1.77;;
69323;SDS011;56470;47.350;8.718;2023-05-07T01:45:44;3.53;;;1.77;;
69323;SDS011;56470;47.350;8.718;2023-05-07T01:48:11;2.55;;;1.10;;
69323;SDS011;56470;47.350;8.718;2023-05-07T01:50:37;2.30;;;1.58;;
69323;SDS011;56470;47.350;8.718;2023-05-07T01:53:03;6.47;;;1.33;;
69323;SDS011;56470;47.350;8.718;2023-05-07T01:55:29;3.17;;;1.83;;
69323;SDS011;56470;47.350;8.718;2023-05-07T01:57:54;3.10;;;1.70;;
69323;SDS011;56470;47.350;8.718;2023-05-07T02:00:19;2.63;;;1.90;;
69323;SDS011;56470;47.350;8.718;2023-05-07T02:02:45;2.50;;;1.23;;
69323;SDS011;56470;47.350;8.718;2023-05-07T02:05:11;3.47;;;1.77;;
69323;SDS011;56470;47.350;8.718;2023-05-07T02:07:36;2.97;;;1.42;;
69323;SDS011;56470;47.350;8.718;2023-05-07T02:10:01;2.77;;;1.50;;
69323;SDS011;56470;47.350;8.718;2023-05-07T02:12:28;3.97;;;1.95;;
69323;SDS011;56470;47.350;8.718;2023-05-07T02:14:53;3.57;;;2.30;;
69323;SDS011;56470;47.350;8.718;2023-05-07T02:17:19;3.40;;;1.90;;
69323;SDS011;56470;47.350;8.718;2023-05-07T02:19:44;2.67;;;1.50;;
69323;SDS011;56470;47.350;8.718;2023-05-07T02:22:09;3.47;;;1.80;;
69323;SDS011;56470;47.350;8.718;2023-05-07T02:24:35;2.90;;;1.73;;
69323;SDS011;56470;47.350;8.718;2023-05-07T02:27:00;2.80;;;1.70;;
69323;SDS011;56470;47.350;8.718;2023-05-07T02:29:26;3.70;;;2.15;;
69323;SDS011;56470;47.350;8.718;2023-05-07T02:31:51;5.17;;;2.00;;
69323;SDS011;56470;47.350;8.718;2023-05-07T02:34:18;2.97;;;2.03;;
69323;SDS011;56470;47.350;8.718;2023-05-07T02:36:43;2.37;;;1.90;;
69323;SDS011;56470;47.350;8.718;2023-05-07T02:39:09;3.53;;;1.73;;
69323;SDS011;56470;47.350;8.718;2023-05-07T02:41:34;2.57;;;1.87;;
69323;SDS011;56470;47.350;8.718;2023-05-07T02:43:59;3.07;;;1.50;;
69323;SDS011;56470;47.350;8.718;2023-05-07T02:46:25;4.07;;;1.73;;
69323;SDS011;56470;47.350;8.718;2023-05-07T02:48:50;3.43;;;1.60;;
69323;SDS011;56470;47.350;8.718;2023-05-07T02:51:17;3.20;;;2.07;;
69323;SDS011;56470;47.350;8.718;2023-05-07T02:53:44;2.80;;;1.60;;
69323;SDS011;56470;47.350;8.718;2023-05-07T02:56:09;2.80;;;1.57;;
69323;SDS011;56470;47.350;8.718;2023-05-07T02:58:35;2.30;;;1.30;;
69323;SDS011;56470;47.350;8.718;2023-05-07T03:01:00;2.60;;;1.52;;
69323;SDS011;56470;47.350;8.718;2023-05-07T03:03:25;2.60;;;1.40;;
69323;SDS011;56470;47.350;8.718;2023-05-07T03:05:51;3.97;;;1.73;;
69323;SDS011;56470;47.350;8.718;2023-05-07T03:08:16;3.30;;;1.80;;
69323;SDS011;56470;47.350;8.718;2023-05-07T03:10:41;3.73;;;1.50;;
69323;SDS011;56470;47.350;8.718;2023-05-07T03:13:07;2.47;;;1.60;;
69323;SDS011;56470;47.350;8.718;2023-05-07T03:15:32;2.90;;;1.63;;
69323;SDS011;56470;47.350;8.718;2023-05-07T03:17:57;3.50;;;1.88;;
69323;SDS011;56470;47.350;8.718;2023-05-07T03:20:23;3.60;;;1.77;;
69323;SDS011;56470;47.350;8.718;2023-05-07T03:22:48;2.70;;;1.53;;
69323;SDS011;56470;47.350;8.718;2023-05-07T03:25:13;2.67;;;1.77;;
69323;SDS011;56470;47.350;8.718;2023-05-07T03:27:41;2.67;;;1.60;;
69323;SDS011;56470;47.350;8.718;2023-05-07T03:30:07;2.63;;;1.80;;
69323;SDS011;56470;47.350;8.718;2023-05-07T03:32:33;2.50;;;1.75;;
69323;SDS011;56470;47.350;8.718;2023-05-07T03:35:00;2.45;;;1.60;;
69323;SDS011;56470;47.350;8.718;2023-05-07T03:37:25;2.40;;;1.77;;
69323;SDS011;56470;47.350;8.718;2023-05-07T03:39:51;2.10;;;1.40;;
69323;SDS011;56470;47.350;8.718;2023-05-07T03:42:16;3.33;;;1.53;;
69323;SDS011;56470;47.350;8.718;2023-05-07T03:44:41;2.10;;;1.40;;
69323;SDS011;56470;47.350;8.718;2023-05-07T03:47:07;2.58;;;1.60;;
69323;SDS011;56470;47.350;8.718;2023-05-07T03:49:32;4.67;;;1.47;;
69323;SDS011;56470;47.350;8.718;2023-05-07T03:51:58;2.40;;;1.60;;
69323;SDS011;56470;47.350;8.718;2023-05-07T03:54:23;3.60;;;1.33;;
69323;SDS011;56470;47.350;8.718;2023-05-07T03:56:48;3.70;;;1.60;;
69323;SDS011;56470;47.350;8.718;2023-05-07T03:59:14;2.60;;;1.40;;
69323;SDS011;56470;47.350;8.718;2023-05-07T04:01:39;2.37;;;1.37;;
69323;SDS011;56470;47.350;8.718;2023-05-07T04:04:05;2.50;;;1.57;;
69323;SDS011;56470;47.350;8.718;2023-05-07T04:06:30;3.33;;;1.95;;
69323;SDS011;56470;47.350;8.718;2023-05-07T04:08:56;3.73;;;2.00;;
69323;SDS011;56470;47.350;8.718;2023-05-07T04:11:21;3.07;;;1.80;;
69323;SDS011;56470;47.350;8.718;2023-05-07T04:13:47;3.53;;;2.03;;
69323;SDS011;56470;47.350;8.718;2023-05-07T04:16:12;4.07;;;1.10;;
69323;SDS011;56470;47.350;8.718;2023-05-07T04:18:37;2.13;;;1.57;;
69323;SDS011;56470;47.350;8.718;2023-05-07T04:21:03;2.05;;;1.27;;
69323;SDS011;56470;47.350;8.718;2023-05-07T04:23:29;4.20;;;1.77;;
69323;SDS011;56470;47.350;8.718;2023-05-07T04:25:54;2.13;;;1.63;;
69323;SDS011;56470;47.350;8.718;2023-05-07T04:28:20;2.20;;;1.70;;
69323;SDS011;56470;47.350;8.718;2023-05-07T04:30:45;3.70;;;2.07;;
69323;SDS011;56470;47.350;8.718;2023-05-07T04:33:11;3.03;;;1.40;;
69323;SDS011;56470;47.350;8.718;2023-05-07T04:35:36;2.37;;;1.27;;
69323;SDS011;56470;47.350;8.718;2023-05-07T04:38:02;3.30;;;1.48;;
69323;SDS011;56470;47.350;8.718;2023-05-07T04:40:27;2.80;;;1.23;;
69323;SDS011;56470;47.350;8.718;2023-05-07T04:42:52;2.63;;;1.53;;
69323;SDS011;56470;47.350;8.718;2023-05-07T04:45:18;2.83;;;1.80;;
69323;SDS011;56470;47.350;8.718;2023-05-07T04:47:43;2.53;;;1.33;;
69323;SDS011;56470;47.350;8.718;2023-05-07T04:50:09;3.20;;;1.70;;
69323;SDS011;56470;47.350;8.718;2023-05-07T04:52:35;3.13;;;1.55;;
69323;SDS011;56470;47.350;8.718;2023-05-07T04:55:01;2.93;;;1.70;;
69323;SDS011;56470;47.350;8.718;2023-05-07T04:57:26;4.47;;;1.87;;
69323;SDS011;56470;47.350;8.718;2023-05-07T04:59:52;2.00;;;1.10;;
69323;SDS011;56470;47.350;8.718;2023-05-07T05:02:18;2.63;;;1.60;;
69323;SDS011;56470;47.350;8.718;2023-05-07T05:04:43;2.30;;;1.70;;
69323;SDS011;56470;47.350;8.718;2023-05-07T05:07:09;2.70;;;0.93;;
69323;SDS011;56470;47.350;8.718;2023-05-07T05:09:34;2.05;;;1.52;;
69323;SDS011;56470;47.350;8.718;2023-05-07T05:11:59;2.50;;;1.53;;
69323;SDS011;56470;47.350;8.718;2023-05-07T05:14:25;2.13;;;1.33;;
69323;SDS011;56470;47.350;8.718;2023-05-07T05:16:50;3.10;;;1.67;;
69323;SDS011;56470;47.350;8.718;2023-05-07T05:19:15;3.03;;;1.70;;
69323;SDS011;56470;47.350;8.718;2023-05-07T05:21:41;2.90;;;1.63;;
69323;SDS011;56470;47.350;8.718;2023-05-07T05:24:06;5.37;;;1.90;;
69323;SDS011;56470;47.350;8.718;2023-05-07T05:26:32;3.23;;;2.03;;
69323;SDS011;56470;47.350;8.718;2023-05-07T05:28:57;3.43;;;1.90;;
69323;SDS011;56470;47.350;8.718;2023-05-07T05:31:22;2.53;;;1.43;;
69323;SDS011;56470;47.350;8.718;2023-05-07T05:33:48;2.43;;;1.47;;
69323;SDS011;56470;47.350;8.718;2023-05-07T05:36:15;2.13;;;1.60;;
69323;SDS011;56470;47.350;8.718;2023-05-07T05:38:41;3.58;;;1.48;;
69323;SDS011;56470;47.350;8.718;2023-05-07T05:41:07;5.13;;;2.20;;
69323;SDS011;56470;47.350;8.718;2023-05-07T05:43:32;3.22;;;1.65;;
69323;SDS011;56470;47.350;8.718;2023-05-07T05:45:58;2.20;;;1.27;;
69323;SDS011;56470;47.350;8.718;2023-05-07T05:48:23;3.28;;;1.35;;
69323;SDS011;56470;47.350;8.718;2023-05-07T05:50:49;4.97;;;1.73;;
69323;SDS011;56470;47.350;8.718;2023-05-07T05:53:14;3.67;;;1.90;;
69323;SDS011;56470;47.350;8.718;2023-05-07T05:55:41;3.17;;;1.30;;
69323;SDS011;56470;47.350;8.718;2023-05-07T05:58:06;4.10;;;1.95;;
69323;SDS011;56470;47.350;8.718;2023-05-07T06:00:32;2.20;;;1.00;;
69323;SDS011;56470;47.350;8.718;2023-05-07T06:02:57;4.43;;;1.70;;
69323;SDS011;56470;47.350;8.718;2023-05-07T06:05:22;3.77;;;1.73;;
69323;SDS011;56470;47.350;8.718;2023-05-07T06:07:48;3.37;;;2.13;;
69323;SDS011;56470;47.350;8.718;2023-05-07T06:10:13;3.40;;;1.80;;
69323;SDS011;56470;47.350;8.718;2023-05-07T06:12:39;3.50;;;1.80;;
69323;SDS011;56470;47.350;8.718;2023-05-07T06:15:04;2.38;;;1.40;;
69323;SDS011;56470;47.350;8.718;2023-05-07T06:17:30;2.67;;;1.63;;
69323;SDS011;56470;47.350;8.718;2023-05-07T06:19:55;2.83;;;1.53;;
69323;SDS011;56470;47.350;8.718;2023-05-07T06:22:21;2.57;;;1.60;;
69323;SDS011;56470;47.350;8.718;2023-05-07T06:24:46;2.67;;;1.45;;
69323;SDS011;56470;47.350;8.718;2023-05-07T06:27:12;2.57;;;1.70;;
69323;SDS011;56470;47.350;8.718;2023-05-07T06:29:37;4.00;;;1.67;;
69323;SDS011;56470;47.350;8.718;2023-05-07T06:32:08;2.73;;;1.63;;
69323;SDS011;56470;47.350;8.718;2023-05-07T06:34:37;2.72;;;1.48;;
69323;SDS011;56470;47.350;8.718;2023-05-07T06:37:03;3.10;;;1.60;;
69323;SDS011;56470;47.350;8.718;2023-05-07T06:39:29;2.20;;;1.43;;
69323;SDS011;56470;47.350;8.718;2023-05-07T06:41:54;3.37;;;1.90;;
69323;SDS011;56470;47.350;8.718;2023-05-07T06:44:19;2.60;;;1.60;;
69323;SDS011;56470;47.350;8.718;2023-05-07T06:46:45;2.00;;;1.20;;
69323;SDS011;56470;47.350;8.718;2023-05-07T06:49:12;3.30;;;1.60;;
69323;SDS011;56470;47.350;8.718;2023-05-07T06:51:38;4.73;;;1.77;;
69323;SDS011;56470;47.350;8.718;2023-05-07T06:54:03;1.92;;;1.50;;
69323;SDS011;56470;47.350;8.718;2023-05-07T06:56:29;2.03;;;1.07;;
69323;SDS011;56470;47.350;8.718;2023-05-07T06:58:55;2.50;;;1.40;;
69323;SDS011;56470;47.350;8.718;2023-05-07T07:01:21;4.73;;;1.70;;
69323;SDS011;56470;47.350;8.718;2023-05-07T07:03:46;4.28;;;1.17;;
69323;SDS011;56470;47.350;8.718;2023-05-07T07:06:12;2.17;;;1.50;;
69323;SDS011;56470;47.350;8.718;2023-05-07T07:08:37;2.07;;;1.47;;
69323;SDS011;56470;47.350;8.718;2023-05-07T07:11:03;3.97;;;1.70;;
69323;SDS011;56470;47.350;8.718;2023-05-07T07:13:29;2.40;;;1.60;;
69323;SDS011;56470;47.350;8.718;2023-05-07T07:15:54;3.03;;;1.10;;
69323;SDS011;56470;47.350;8.718;2023-05-07T07:18:20;2.57;;;1.33;;
69323;SDS011;56470;47.350;8.718;2023-05-07T07:20:45;2.47;;;1.40;;
69323;SDS011;56470;47.350;8.718;2023-05-07T07:23:10;1.58;;;1.20;;
69323;SDS011;56470;47.350;8.718;2023-05-07T07:25:36;2.43;;;1.33;;
69323;SDS011;56470;47.350;8.718;2023-05-07T07:28:01;2.13;;;1.37;;
69323;SDS011;56470;47.350;8.718;2023-05-07T07:30:27;2.13;;;1.43;;
69323;SDS011;56470;47.350;8.718;2023-05-07T07:32:52;1.83;;;1.23;;
69323;SDS011;56470;47.350;8.718;2023-05-07T07:35:18;3.25;;;1.30;;
69323;SDS011;56470;47.350;8.718;2023-05-07T07:37:43;2.00;;;1.30;;
69323;SDS011;56470;47.350;8.718;2023-05-07T07:40:09;1.93;;;1.57;;
69323;SDS011;56470;47.350;8.718;2023-05-07T07:42:34;3.30;;;1.45;;
69323;SDS011;56470;47.350;8.718;2023-05-07T07:45:00;3.07;;;1.60;;
69323;SDS011;56470;47.350;8.718;2023-05-07T07:47:25;3.03;;;1.90;;
69323;SDS011;56470;47.350;8.718;2023-05-07T07:49:50;2.95;;;1.23;;
69323;SDS011;56470;47.350;8.718;2023-05-07T07:52:16;2.93;;;1.60;;
69323;SDS011;56470;47.350;8.718;2023-05-07T07:54:41;2.63;;;1.53;;
69323;SDS011;56470;47.350;8.718;2023-05-07T07:57:06;2.17;;;1.60;;
69323;SDS011;56470;47.350;8.718;2023-05-07T07:59:32;3.13;;;1.37;;
69323;SDS011;56470;47.350;8.718;2023-05-07T08:01:57;2.50;;;1.67;;
69323;SDS011;56470;47.350;8.718;2023-05-07T08:04:22;2.42;;;1.50;;
69323;SDS011;56470;47.350;8.718;2023-05-07T08:06:48;3.80;;;1.80;;
69323;SDS011;56470;47.350;8.718;2023-05-07T08:09:13;2.90;;;1.67;;
69323;SDS011;56470;47.350;8.718;2023-05-07T08:11:39;2.50;;;1.85;;
69323;SDS011;56470;47.350;8.718;2023-05-07T08:14:04;3.17;;;1.90;;
69323;SDS011;56470;47.350;8.718;2023-05-07T08:16:30;3.60;;;2.00;;
69323;SDS011;56470;47.350;8.718;2023-05-07T08:18:55;3.50;;;2.03;;
69323;SDS011;56470;47.350;8.718;2023-05-07T08:21:20;3.85;;;2.20;;
69323;SDS011;56470;47.350;8.718;2023-05-07T08:23:47;3.30;;;2.03;;
69323;SDS011;56470;47.350;8.718;2023-05-07T08:26:12;2.87;;;1.67;;
69323;SDS011;56470;47.350;8.718;2023-05-07T08:28:37;3.63;;;1.98;;
69323;SDS011;56470;47.350;8.718;2023-05-07T08:31:03;3.00;;;1.83;;
69323;SDS011;56470;47.350;8.718;2023-05-07T08:33:28;3.80;;;2.03;;
69323;SDS011;56470;47.350;8.718;2023-05-07T08:35:53;3.27;;;2.00;;
69323;SDS011;56470;47.350;8.718;2023-05-07T08:38:18;5.73;;;2.30;;
69323;SDS011;56470;47.350;8.718;2023-05-07T08:40:44;5.93;;;2.70;;
69323;SDS011;56470;47.350;8.718;2023-05-07T08:43:11;4.03;;;2.00;;
69323;SDS011;56470;47.350;8.718;2023-05-07T08:45:37;3.40;;;1.90;;
69323;SDS011;56470;47.350;8.718;2023-05-07T08:48:05;3.92;;;2.00;;
69323;SDS011;56470;47.350;8.718;2023-05-07T08:50:35;4.85;;;1.75;;
69323;SDS011;56470;47.350;8.718;2023-05-07T08:53:03;2.97;;;1.95;;
69323;SDS011;56470;47.350;8.718;2023-05-07T08:55:29;3.60;;;2.03;;
69323;SDS011;56470;47.350;8.718;2023-05-07T08:57:55;3.83;;;2.40;;
69323;SDS011;56470;47.350;8.718;2023-05-07T09:00:20;6.13;;;2.10;;
69323;SDS011;56470;47.350;8.718;2023-05-07T09:02:46;4.50;;;2.30;;
69323;SDS011;56470;47.350;8.718;2023-05-07T09:05:11;3.65;;;1.77;;
69323;SDS011;56470;47.350;8.718;2023-05-07T09:07:36;3.23;;;1.73;;
69323;SDS011;56470;47.350;8.718;2023-05-07T09:10:02;2.70;;;1.67;;
69323;SDS011;56470;47.350;8.718;2023-05-07T09:12:29;4.28;;;2.33;;
69323;SDS011;56470;47.350;8.718;2023-05-07T09:14:54;3.87;;;1.83;;
69323;SDS011;56470;47.350;8.718;2023-05-07T09:17:20;2.65;;;1.40;;
69323;SDS011;56470;47.350;8.718;2023-05-07T09:19:45;2.73;;;1.57;;
69323;SDS011;56470;47.350;8.718;2023-05-07T09:22:11;4.07;;;2.50;;
69323;SDS011;56470;47.350;8.718;2023-05-07T09:24:37;5.40;;;1.80;;
69323;SDS011;56470;47.350;8.718;2023-05-07T09:27:03;3.60;;;2.38;;
69323;SDS011;56470;47.350;8.718;2023-05-07T09:29:29;4.07;;;2.20;;
69323;SDS011;56470;47.350;8.718;2023-05-07T09:32:00;4.10;;;2.85;;
69323;SDS011;56470;47.350;8.718;2023-05-07T09:34:25;5.65;;;3.22;;
69323;SDS011;56470;47.350;8.718;2023-05-07T09:36:51;3.13;;;2.67;;
69323;SDS011;56470;47.350;8.718;2023-05-07T09:39:16;4.00;;;2.80;;
69323;SDS011;56470;47.350;8.718;2023-05-07T09:41:45;2.87;;;1.93;;
69323;SDS011;56470;47.350;8.718;2023-05-07T09:44:12;3.38;;;2.00;;
69323;SDS011;56470;47.350;8.718;2023-05-07T09:46:39;3.60;;;1.98;;
69323;SDS011;56470;47.350;8.718;2023-05-07T09:49:07;4.03;;;2.15;;
69323;SDS011;56470;47.350;8.718;2023-05-07T09:51:45;3.27;;;1.83;;
69323;SDS011;56470;47.350;8.718;2023-05-07T09:54:14;3.35;;;2.22;;
69323;SDS011;56470;47.350;8.718;2023-05-07T09:56:39;3.60;;;2.15;;
69323;SDS011;56470;47.350;8.718;2023-05-07T09:59:06;3.65;;;1.60;;
69323;SDS011;56470;47.350;8.718;2023-05-07T10:01:33;3.60;;;1.80;;
69323;SDS011;56470;47.350;8.718;2023-05-07T10:04:01;3.25;;;1.77;;
69323;SDS011;56470;47.350;8.718;2023-05-07T10:06:29;3.92;;;2.00;;
69323;SDS011;56470;47.350;8.718;2023-05-07T10:08:55;2.80;;;1.83;;
69323;SDS011;56470;47.350;8.718;2023-05-07T10:11:21;4.30;;;2.10;;
69323;SDS011;56470;47.350;8.718;2023-05-07T10:13:47;2.60;;;1.93;;
69323;SDS011;56470;47.350;8.718;2023-05-07T10:16:13;2.42;;;1.50;;
69323;SDS011;56470;47.350;8.718;2023-05-07T10:18:40;2.55;;;1.80;;
69323;SDS011;56470;47.350;8.718;2023-05-07T10:21:24;2.30;;;1.40;;
69323;SDS011;56470;47.350;8.718;2023-05-07T10:24:03;2.50;;;1.38;;
69323;SDS011;56470;47.350;8.718;2023-05-07T10:26:35;2.00;;;1.40;;
69323;SDS011;56470;47.350;8.718;2023-05-07T10:29:10;2.50;;;1.53;;
69323;SDS011;56470;47.350;8.718;2023-05-07T10:31:44;3.73;;;1.70;;
69323;SDS011;56470;47.350;8.718;2023-05-07T10:34:40;3.08;;;1.90;;
69323;SDS011;56470;47.350;8.718;2023-05-07T10:37:08;2.53;;;1.48;;
69323;SDS011;56470;47.350;8.718;2023-05-07T10:39:34;3.38;;;1.77;;
69323;SDS011;56470;47.350;8.718;2023-05-07T10:42:09;3.23;;;1.63;;
69323;SDS011;56470;47.350;8.718;2023-05-07T10:44:35;2.90;;;1.30;;
69323;SDS011;56470;47.350;8.718;2023-05-07T10:47:05;3.40;;;1.67;;
69323;SDS011;56470;47.350;8.718;2023-05-07T10:50:20;2.97;;;1.40;;
69323;SDS011;56470;47.350;8.718;2023-05-07T10:52:23;3.72;;;2.15;;
69323;SDS011;56470;47.350;8.718;2023-05-07T10:55:36;4.38;;;1.92;;
69323;SDS011;56470;47.350;8.718;2023-05-07T10:57:46;3.45;;;1.80;;
69323;SDS011;56470;47.350;8.718;2023-05-07T11:03:04;2.88;;;1.63;;
69323;SDS011;56470;47.350;8.718;2023-05-07T11:05:32;2.28;;;1.83;;
69323;SDS011;56470;47.350;8.718;2023-05-07T11:08:01;2.73;;;1.63;;
69323;SDS011;56470;47.350;8.718;2023-05-07T11:13:17;3.17;;;1.83;;
69323;SDS011;56470;47.350;8.718;2023-05-07T11:15:44;3.30;;;1.95;;
69323;SDS011;56470;47.350;8.718;2023-05-07T11:18:12;3.00;;;2.00;;
69323;SDS011;56470;47.350;8.718;2023-05-07T11:20:46;3.40;;;2.03;;
69323;SDS011;56470;47.350;8.718;2023-05-07T11:26:00;4.25;;;2.50;;
69323;SDS011;56470;47.350;8.718;2023-05-07T11:28:28;7.88;;;2.55;;
69323;SDS011;56470;47.350;8.718;2023-05-07T11:30:55;4.20;;;2.30;;
69323;SDS011;56470;47.350;8.718;2023-05-07T11:33:21;2.47;;;1.40;;
69323;SDS011;56470;47.350;8.718;2023-05-07T11:35:47;2.53;;;1.65;;
69323;SDS011;56470;47.350;8.718;2023-05-07T11:38:13;4.00;;;2.70;;
69323;SDS011;56470;47.350;8.718;2023-05-07T11:40:57;3.77;;;1.70;;
69323;SDS011;56470;47.350;8.718;2023-05-07T11:43:29;3.20;;;1.88;;
69323;SDS011;56470;47.350;8.718;2023-05-07T11:45:54;3.17;;;2.03;;
69323;SDS011;56470;47.350;8.718;2023-05-07T11:48:20;3.83;;;2.40;;
69323;SDS011;56470;47.350;8.718;2023-05-07T11:50:54;3.78;;;2.28;;
69323;SDS011;56470;47.350;8.718;2023-05-07T11:53:26;3.13;;;1.95;;
69323;SDS011;56470;47.350;8.718;2023-05-07T11:55:52;3.55;;;1.98;;
69323;SDS011;56470;47.350;8.718;2023-05-07T11:58:20;3.90;;;2.40;;
69323;SDS011;56470;47.350;8.718;2023-05-07T12:00:50;3.35;;;2.17;;
69323;SDS011;56470;47.350;8.718;2023-05-07T12:03:16;3.03;;;1.85;;
69323;SDS011;56470;47.350;8.718;2023-05-07T12:05:43;3.28;;;1.77;;
69323;SDS011;56470;47.350;8.718;2023-05-07T12:08:15;3.92;;;2.38;;
69323;SDS011;56470;47.350;8.718;2023-05-07T12:10:44;3.77;;;2.70;;
69323;SDS011;56470;47.350;8.718;2023-05-07T12:13:17;3.92;;;2.20;;
69323;SDS011;56470;47.350;8.718;2023-05-07T12:15:46;3.92;;;2.30;;
69323;SDS011;56470;47.350;8.718;2023-05-07T12:18:12;6.50;;;2.40;;
69323;SDS011;56470;47.350;8.718;2023-05-07T12:20:38;3.50;;;2.38;;
69323;SDS011;56470;47.350;8.718;2023-05-07T12:23:04;3.80;;;2.10;;
69323;SDS011;56470;47.350;8.718;2023-05-07T12:25:31;3.03;;;2.05;;
69323;SDS011;56470;47.350;8.718;2023-05-07T12:27:56;3.38;;;2.25;;
69323;SDS011;56470;47.350;8.718;2023-05-07T12:30:23;3.70;;;2.23;;
69323;SDS011;56470;47.350;8.718;2023-05-07T12:32:52;4.85;;;2.65;;
69323;SDS011;56470;47.350;8.718;2023-05-07T12:35:25;3.50;;;2.20;;
69323;SDS011;56470;47.350;8.718;2023-05-07T12:38:12;4.63;;;2.60;;
69323;SDS011;56470;47.350;8.718;2023-05-07T12:40:40;4.50;;;2.70;;
69323;SDS011;56470;47.350;8.718;2023-05-07T12:43:07;3.90;;;2.88;;
69323;SDS011;56470;47.350;8.718;2023-05-07T12:45:36;3.95;;;2.40;;
69323;SDS011;56470;47.350;8.718;2023-05-07T12:48:02;3.70;;;2.50;;
69323;SDS011;56470;47.350;8.718;2023-05-07T12:50:30;4.60;;;2.70;;
69323;SDS011;56470;47.350;8.718;2023-05-07T12:52:57;4.67;;;3.07;;
69323;SDS011;56470;47.350;8.718;2023-05-07T12:55:23;5.00;;;3.28;;
69323;SDS011;56470;47.350;8.718;2023-05-07T12:57:48;5.70;;;3.23;;
69323;SDS011;56470;47.350;8.718;2023-05-07T13:00:17;3.45;;;2.10;;
69323;SDS011;56470;47.350;8.718;2023-05-07T13:02:58;5.15;;;2.92;;
69323;SDS011;56470;47.350;8.718;2023-05-07T13:05:23;4.03;;;2.60;;
69323;SDS011;56470;47.350;8.718;2023-05-07T13:07:54;5.33;;;2.40;;
69323;SDS011;56470;47.350;8.718;2023-05-07T13:10:21;4.17;;;3.10;;
69323;SDS011;56470;47.350;8.718;2023-05-07T13:12:48;5.57;;;2.53;;
69323;SDS011;56470;47.350;8.718;2023-05-07T13:15:13;4.23;;;2.50;;
69323;SDS011;56470;47.350;8.718;2023-05-07T13:17:38;5.38;;;2.42;;
69323;SDS011;56470;47.350;8.718;2023-05-07T13:20:04;4.17;;;2.20;;
69323;SDS011;56470;47.350;8.718;2023-05-07T13:22:30;4.05;;;2.55;;
69323;SDS011;56470;47.350;8.718;2023-05-07T13:24:56;4.53;;;2.60;;
69323;SDS011;56470;47.350;8.718;2023-05-07T13:27:21;9.23;;;2.80;;
69323;SDS011;56470;47.350;8.718;2023-05-07T13:29:47;3.70;;;2.67;;
69323;SDS011;56470;47.350;8.718;2023-05-07T13:32:12;4.80;;;2.20;;
69323;SDS011;56470;47.350;8.718;2023-05-07T13:34:37;3.60;;;2.47;;
69323;SDS011;56470;47.350;8.718;2023-05-07T13:37:03;3.73;;;2.33;;
69323;SDS011;56470;47.350;8.718;2023-05-07T13:39:28;4.13;;;2.67;;
69323;SDS011;56470;47.350;8.718;2023-05-07T13:41:53;3.67;;;2.20;;
69323;SDS011;56470;47.350;8.718;2023-05-07T13:44:18;3.90;;;2.17;;
69323;SDS011;56470;47.350;8.718;2023-05-07T13:46:44;4.00;;;2.50;;
69323;SDS011;56470;47.350;8.718;2023-05-07T13:49:10;5.07;;;2.60;;
69323;SDS011;56470;47.350;8.718;2023-05-07T13:51:36;5.30;;;2.50;;
69323;SDS011;56470;47.350;8.718;2023-05-07T13:54:01;4.60;;;3.03;;
69323;SDS011;56470;47.350;8.718;2023-05-07T13:56:26;4.87;;;3.07;;
69323;SDS011;56470;47.350;8.718;2023-05-07T13:58:53;3.10;;;2.13;;
69323;SDS011;56470;47.350;8.718;2023-05-07T14:01:18;5.70;;;2.67;;
69323;SDS011;56470;47.350;8.718;2023-05-07T14:03:44;4.20;;;2.83;;
69323;SDS011;56470;47.350;8.718;2023-05-07T14:06:09;5.03;;;2.75;;
69323;SDS011;56470;47.350;8.718;2023-05-07T14:08:34;4.03;;;2.80;;
69323;SDS011;56470;47.350;8.718;2023-05-07T14:11:02;4.78;;;2.60;;
69323;SDS011;56470;47.350;8.718;2023-05-07T14:13:28;5.27;;;2.97;;
69323;SDS011;56470;47.350;8.718;2023-05-07T14:15:55;5.97;;;2.58;;
69323;SDS011;56470;47.350;8.718;2023-05-07T14:18:21;5.35;;;2.50;;
69323;SDS011;56470;47.350;8.718;2023-05-07T14:20:46;4.43;;;2.90;;
69323;SDS011;56470;47.350;8.718;2023-05-07T14:23:13;4.95;;;2.50;;
69323;SDS011;56470;47.350;8.718;2023-05-07T14:25:39;3.63;;;2.03;;
69323;SDS011;56470;47.350;8.718;2023-05-07T14:28:04;3.90;;;2.30;;
69323;SDS011;56470;47.350;8.718;2023-05-07T14:30:30;4.90;;;2.05;;
69323;SDS011;56470;47.350;8.718;2023-05-07T14:32:55;4.37;;;2.57;;
69323;SDS011;56470;47.350;8.718;2023-05-07T14:35:20;3.97;;;2.27;;
69323;SDS011;56470;47.350;8.718;2023-05-07T14:37:46;3.40;;;2.30;;
69323;SDS011;56470;47.350;8.718;2023-05-07T14:40:11;3.40;;;1.90;;
69323;SDS011;56470;47.350;8.718;2023-05-07T14:42:36;3.88;;;2.17;;
69323;SDS011;56470;47.350;8.718;2023-05-07T14:45:02;3.10;;;2.10;;
69323;SDS011;56470;47.350;8.718;2023-05-07T14:47:28;3.40;;;1.97;;
69323;SDS011;56470;47.350;8.718;2023-05-07T14:49:53;3.20;;;1.83;;
69323;SDS011;56470;47.350;8.718;2023-05-07T14:52:19;3.80;;;2.20;;
69323;SDS011;56470;47.350;8.718;2023-05-07T14:54:44;4.10;;;2.00;;